createdAt,value
2018-12-07T00:02:19.830Z,10.00
2018-12-07T00:04:46.186Z,9.90
2018-12-07T00:07:12.326Z,9.90
2018-12-07T00:09:38.446Z,9.80
2018-12-07T00:12:04.910Z,9.80
2018-12-07T00:14:31.152Z,9.80
2018-12-07T00:16:57.268Z,9.80
2018-12-07T00:19:23.377Z,9.80
2018-12-07T00:21:49.542Z,9.80
2018-12-07T00:24:16.649Z,9.80
2018-12-07T00:26:42.746Z,9.80
2018-12-07T00:29:08.921Z,9.90
2018-12-07T00:31:35.034Z,9.90
2018-12-07T00:34:01.237Z,9.80
2018-12-07T00:36:27.424Z,9.80
2018-12-07T00:38:53.534Z,9.80
2018-12-07T00:41:19.650Z,9.80
2018-12-07T00:43:45.773Z,9.70
2018-12-07T00:46:11.921Z,9.70
2018-12-07T00:48:38.017Z,9.70
2018-12-07T00:51:04.131Z,9.80
2018-12-07T00:53:30.342Z,9.80
2018-12-07T00:55:56.455Z,9.80
2018-12-07T00:58:22.568Z,9.80
2018-12-07T01:00:48.778Z,9.70
2018-12-07T01:03:14.942Z,9.80
2018-12-07T01:05:41.170Z,9.80
2018-12-07T01:08:07.270Z,9.80
2018-12-07T01:10:33.503Z,9.80
2018-12-07T01:12:59.715Z,9.70
2018-12-07T01:15:26.039Z,9.70
2018-12-07T01:17:52.142Z,9.80
2018-12-07T01:20:18.271Z,9.80
2018-12-07T01:22:44.390Z,10.40
2018-12-07T01:25:10.722Z,9.90
2018-12-07T01:27:36.948Z,9.90
2018-12-07T01:30:04.285Z,9.80
2018-12-07T01:32:30.413Z,9.70
2018-12-07T01:34:56.613Z,9.80
2018-12-07T01:37:22.750Z,9.80
2018-12-07T01:39:48.862Z,9.80
2018-12-07T01:42:15.002Z,9.90
2018-12-07T01:44:41.110Z,9.90
2018-12-07T01:47:07.258Z,9.90
2018-12-07T01:49:33.375Z,9.80
2018-12-07T01:51:59.507Z,9.90
2018-12-07T01:54:25.614Z,9.80
2018-12-07T01:56:51.726Z,9.90
2018-12-07T01:59:17.822Z,9.90
2018-12-07T02:01:43.938Z,9.80
2018-12-07T02:04:10.061Z,9.90
2018-12-07T02:06:36.176Z,9.90
2018-12-07T02:09:04.202Z,9.90
2018-12-07T02:11:30.322Z,9.80
2018-12-07T02:13:56.538Z,9.80
2018-12-07T02:16:22.635Z,9.80
2018-12-07T02:18:48.743Z,9.80
2018-12-07T02:21:14.869Z,9.80
2018-12-07T02:23:40.982Z,9.80
2018-12-07T02:26:07.850Z,9.90
2018-12-07T02:28:34.026Z,9.90
2018-12-07T02:31:00.130Z,9.90
2018-12-07T02:33:26.250Z,9.90
2018-12-07T02:35:52.353Z,9.90
2018-12-07T02:38:18.466Z,10.00
2018-12-07T02:40:44.587Z,10.00
2018-12-07T02:43:10.694Z,10.00
2018-12-07T02:45:36.957Z,10.00
2018-12-07T02:48:03.197Z,10.00
2018-12-07T02:50:29.297Z,10.10
2018-12-07T02:52:55.408Z,10.20
2018-12-07T02:55:21.514Z,10.20
2018-12-07T02:57:47.614Z,10.20
2018-12-07T03:00:13.764Z,10.20
2018-12-07T03:02:39.994Z,10.20
2018-12-07T03:05:06.333Z,10.30
2018-12-07T03:07:32.448Z,10.30
2018-12-07T03:09:59.573Z,10.30
2018-12-07T03:12:25.793Z,10.20
2018-12-07T03:14:51.914Z,10.20
2018-12-07T03:17:18.138Z,10.20
2018-12-07T03:19:44.321Z,10.30
2018-12-07T03:22:10.425Z,10.30
2018-12-07T03:24:37.590Z,10.20
2018-12-07T03:27:03.922Z,10.30
2018-12-07T03:29:30.195Z,10.30
2018-12-07T03:31:56.312Z,10.30
2018-12-07T03:34:22.423Z,10.30
2018-12-07T03:36:48.522Z,10.20
2018-12-07T03:39:14.669Z,10.20
2018-12-07T03:41:40.783Z,10.30
2018-12-07T03:44:06.900Z,10.30
2018-12-07T03:46:33.007Z,10.30
2018-12-07T03:49:00.114Z,10.30
2018-12-07T03:51:26.437Z,10.30
2018-12-07T03:53:52.547Z,10.30
2018-12-07T03:56:18.788Z,10.20
2018-12-07T03:58:44.905Z,10.30
2018-12-07T04:01:11.046Z,10.50
2018-12-07T04:03:37.154Z,10.60
2018-12-07T04:06:03.364Z,10.60
2018-12-07T04:08:29.491Z,10.60
2018-12-07T04:10:55.611Z,10.60
2018-12-07T04:13:21.740Z,10.60
2018-12-07T04:15:47.874Z,10.60
2018-12-07T04:18:14.129Z,10.60
2018-12-07T04:20:40.224Z,10.50
2018-12-07T04:23:06.329Z,10.50
2018-12-07T04:25:32.430Z,10.50
2018-12-07T04:27:58.537Z,10.40
2018-12-07T04:30:24.954Z,10.40
2018-12-07T04:32:51.072Z,10.50
2018-12-07T04:35:17.198Z,10.50
2018-12-07T04:37:43.294Z,10.50
2018-12-07T04:40:09.529Z,10.60
2018-12-07T04:42:35.663Z,10.60
2018-12-07T04:45:01.982Z,10.60
2018-12-07T04:47:28.155Z,10.60
2018-12-07T04:49:54.408Z,10.70
2018-12-07T04:52:21.906Z,10.70
2018-12-07T04:54:49.027Z,10.60
2018-12-07T04:57:15.108Z,10.60
2018-12-07T04:59:41.218Z,10.60
2018-12-07T05:02:07.347Z,10.60
2018-12-07T05:04:33.458Z,10.60
2018-12-07T05:06:59.538Z,10.70
2018-12-07T05:09:25.712Z,10.70
2018-12-07T05:11:51.912Z,10.60
2018-12-07T05:14:17.993Z,10.60
2018-12-07T05:16:44.078Z,10.60
2018-12-07T05:19:10.187Z,10.60
2018-12-07T05:21:36.298Z,10.60
2018-12-07T05:24:02.495Z,10.60
2018-12-07T05:26:28.574Z,10.50
2018-12-07T05:28:54.666Z,10.50
2018-12-07T05:31:20.767Z,10.50
2018-12-07T05:33:46.839Z,10.50
2018-12-07T05:36:12.930Z,10.50
2018-12-07T05:38:39.028Z,10.50
2018-12-07T05:41:05.222Z,10.50
2018-12-07T05:43:31.291Z,10.70
2018-12-07T05:45:57.416Z,10.70
2018-12-07T05:48:23.836Z,10.50
2018-12-07T05:50:50.130Z,10.60
2018-12-07T05:53:16.208Z,10.50
2018-12-07T05:55:42.302Z,10.50
2018-12-07T05:58:08.398Z,10.40
2018-12-07T06:00:34.523Z,10.40
2018-12-07T06:03:00.627Z,10.50
2018-12-07T06:05:26.724Z,10.50
2018-12-07T06:07:52.802Z,10.40
2018-12-07T06:10:18.984Z,10.40
2018-12-07T06:12:45.126Z,10.40
2018-12-07T06:15:11.447Z,10.50
2018-12-07T06:17:37.527Z,10.40
2018-12-07T06:20:03.858Z,10.50
2018-12-07T06:22:29.946Z,10.40
2018-12-07T06:24:56.067Z,10.50
2018-12-07T06:27:22.158Z,10.40
2018-12-07T06:29:48.410Z,10.50
2018-12-07T06:32:14.727Z,10.50
2018-12-07T06:34:40.895Z,10.40
2018-12-07T06:37:07.002Z,10.40
2018-12-07T06:39:33.101Z,10.50
2018-12-07T06:41:59.195Z,10.50
2018-12-07T06:44:25.244Z,10.50
2018-12-07T06:46:51.338Z,10.50
2018-12-07T06:49:17.426Z,10.50
2018-12-07T06:51:43.545Z,10.50
2018-12-07T06:54:09.865Z,10.50
2018-12-07T06:56:35.975Z,10.40
2018-12-07T06:59:02.061Z,10.50
2018-12-07T07:01:28.179Z,10.60
2018-12-07T07:03:54.378Z,10.50
2018-12-07T07:06:20.489Z,10.50
2018-12-07T07:08:46.597Z,10.60
2018-12-07T07:11:12.702Z,10.60
2018-12-07T07:13:38.781Z,10.60
2018-12-07T07:16:05.000Z,10.50
2018-12-07T07:18:31.076Z,10.50
2018-12-07T07:20:57.194Z,10.60
2018-12-07T07:23:23.307Z,10.60
2018-12-07T07:25:49.418Z,10.60
2018-12-07T07:28:15.493Z,10.60
2018-12-07T07:30:41.618Z,10.70
2018-12-07T07:33:07.725Z,10.80
2018-12-07T07:35:34.345Z,10.70
2018-12-07T07:38:01.504Z,10.70
2018-12-07T07:40:28.257Z,10.70
2018-12-07T07:42:54.342Z,10.70
2018-12-07T07:45:20.422Z,10.80
2018-12-07T07:47:46.551Z,10.70
2018-12-07T07:50:12.778Z,10.80
2018-12-07T07:52:39.574Z,10.80
2018-12-07T07:55:05.890Z,10.90
2018-12-07T07:57:31.983Z,11.00
2018-12-07T07:59:58.075Z,11.00
2018-12-07T08:02:24.404Z,11.00
2018-12-07T08:04:50.503Z,11.20
2018-12-07T08:07:16.569Z,11.30
2018-12-07T08:09:42.639Z,11.40
2018-12-07T08:12:08.758Z,11.40
2018-12-07T08:14:34.991Z,11.40
2018-12-07T08:17:01.347Z,11.40
2018-12-07T08:19:27.576Z,11.50
2018-12-07T08:21:53.663Z,11.50
2018-12-07T08:24:19.832Z,11.50
2018-12-07T08:26:45.953Z,11.40
2018-12-07T08:29:12.158Z,11.30
2018-12-07T08:31:38.285Z,11.20
2018-12-07T08:34:04.386Z,11.20
2018-12-07T08:36:30.583Z,11.30
2018-12-07T08:38:56.686Z,11.50
2018-12-07T08:41:22.858Z,11.60
2018-12-07T08:43:49.063Z,11.70
2018-12-07T08:46:15.161Z,11.80
2018-12-07T08:48:41.286Z,11.90
2018-12-07T08:51:07.374Z,11.90
2018-12-07T08:53:33.574Z,12.10
2018-12-07T08:55:59.674Z,12.30
2018-12-07T08:58:25.935Z,12.40
2018-12-07T09:00:52.108Z,12.50
2018-12-07T09:03:18.180Z,12.50
2018-12-07T09:05:44.410Z,12.50
2018-12-07T09:08:15.194Z,12.50
2018-12-07T09:10:38.943Z,12.50
2018-12-07T09:13:05.130Z,12.20
2018-12-07T09:15:31.355Z,12.20
2018-12-07T09:17:57.547Z,12.20
2018-12-07T09:20:23.653Z,12.30
2018-12-07T09:22:49.749Z,12.50
2018-12-07T09:25:16.474Z,12.60
2018-12-07T09:27:42.567Z,12.70
2018-12-07T09:30:09.282Z,12.80
2018-12-07T09:32:35.394Z,12.80
2018-12-07T09:35:01.576Z,12.80
2018-12-07T09:37:28.967Z,12.70
2018-12-07T09:39:55.318Z,12.70
2018-12-07T09:42:21.526Z,12.80
2018-12-07T09:44:47.625Z,12.90
2018-12-07T09:47:13.690Z,13.00
2018-12-07T09:49:39.890Z,13.10
2018-12-07T09:52:06.106Z,13.20
2018-12-07T09:54:32.174Z,13.40
2018-12-07T09:56:58.255Z,13.50
2018-12-07T09:59:24.342Z,13.50
2018-12-07T10:01:50.535Z,13.40
2018-12-07T10:04:16.603Z,13.40
2018-12-07T10:06:42.709Z,13.20
2018-12-07T10:09:08.783Z,13.10
2018-12-07T10:11:34.854Z,13.00
2018-12-07T10:14:00.967Z,13.10
2018-12-07T10:16:27.037Z,13.30
2018-12-07T10:18:53.130Z,13.10
2018-12-07T10:21:19.215Z,12.80
2018-12-07T10:23:45.294Z,12.90
2018-12-07T10:26:11.398Z,12.90
2018-12-07T10:28:37.481Z,12.90
2018-12-07T10:31:03.569Z,12.80
2018-12-07T10:33:29.651Z,12.80
2018-12-07T10:35:55.738Z,13.00
2018-12-07T10:38:21.808Z,13.00
2018-12-07T10:40:47.878Z,12.90
2018-12-07T10:43:13.970Z,12.90
2018-12-07T10:45:40.046Z,12.90
2018-12-07T10:48:06.132Z,13.00
2018-12-07T10:50:32.235Z,13.10
2018-12-07T10:52:58.311Z,13.00
2018-12-07T10:55:24.386Z,13.00
2018-12-07T10:57:50.481Z,12.90
2018-12-07T11:00:22.847Z,12.90
2018-12-07T11:02:53.050Z,13.00
2018-12-07T11:05:25.498Z,12.90
2018-12-07T11:07:57.882Z,12.90
2018-12-07T11:10:30.082Z,12.70
2018-12-07T11:13:02.418Z,13.00
2018-12-07T11:15:34.818Z,12.90
2018-12-07T11:18:07.170Z,13.00
2018-12-07T11:20:39.558Z,13.00
2018-12-07T11:23:11.885Z,13.00
2018-12-07T11:28:44.556Z,13.10
2018-12-07T11:31:17.070Z,13.10
2018-12-07T11:33:45.190Z,13.10
2018-12-07T11:36:11.381Z,13.00
2018-12-07T11:38:37.471Z,13.00
2018-12-07T11:41:03.765Z,13.00
2018-12-07T11:43:29.850Z,13.10
2018-12-07T11:45:55.938Z,13.20
2018-12-07T11:48:22.014Z,13.20
2018-12-07T11:50:48.121Z,13.20
2018-12-07T11:53:14.317Z,13.20
2018-12-07T11:55:41.418Z,13.30
2018-12-07T11:58:08.166Z,13.40
2018-12-07T12:00:34.278Z,13.50
2018-12-07T12:03:00.364Z,13.50
2018-12-07T12:05:26.442Z,13.50
2018-12-07T12:07:52.522Z,13.50
2018-12-07T12:10:18.609Z,13.60
2018-12-07T12:12:44.686Z,13.70
2018-12-07T12:15:10.782Z,13.90
2018-12-07T12:17:36.869Z,14.20
2018-12-07T12:20:05.079Z,14.40
2018-12-07T12:22:31.159Z,14.10
2018-12-07T12:24:57.251Z,14.00
2018-12-07T12:27:23.328Z,14.20
2018-12-07T12:29:49.438Z,14.30
2018-12-07T12:32:15.534Z,14.60
2018-12-07T12:34:41.647Z,14.90
2018-12-07T12:37:07.723Z,14.90
2018-12-07T12:39:33.933Z,14.70
2018-12-07T12:42:00.011Z,14.50
2018-12-07T12:44:26.118Z,14.80
2018-12-07T12:46:52.307Z,15.00
2018-12-07T12:49:18.391Z,15.20
2018-12-07T12:51:44.479Z,15.30
2018-12-07T12:54:10.556Z,15.40
2018-12-07T12:56:36.642Z,15.40
2018-12-07T12:59:02.742Z,15.30
2018-12-07T13:01:28.834Z,15.20
2018-12-07T13:03:55.030Z,15.20
2018-12-07T13:06:21.109Z,14.90
2018-12-07T13:08:47.215Z,14.60
2018-12-07T13:11:13.310Z,14.40
2018-12-07T13:13:39.390Z,14.00
2018-12-07T13:16:05.490Z,13.80
2018-12-07T13:18:31.569Z,13.70
2018-12-07T13:20:57.654Z,13.50
2018-12-07T13:23:23.726Z,13.50
2018-12-07T13:25:49.902Z,13.50
2018-12-07T13:28:15.978Z,13.40
2018-12-07T13:30:42.167Z,13.40
2018-12-07T13:33:08.290Z,13.40
2018-12-07T13:35:34.412Z,13.30
2018-12-07T13:38:00.482Z,13.20
2018-12-07T13:40:26.851Z,13.10
2018-12-07T13:42:53.149Z,13.20
2018-12-07T13:45:19.648Z,13.60
2018-12-07T13:47:46.069Z,13.70
2018-12-07T13:50:18.789Z,13.70
2018-12-07T13:52:45.065Z,13.70
2018-12-07T13:55:11.281Z,13.50
2018-12-07T13:57:37.579Z,13.50
2018-12-07T14:00:06.276Z,13.50
2018-12-07T14:02:32.557Z,13.90
2018-12-07T14:04:59.735Z,14.10
2018-12-07T14:07:26.110Z,14.30
2018-12-07T14:09:52.389Z,14.30
2018-12-07T14:12:18.775Z,14.30
2018-12-07T14:14:45.159Z,14.20
2018-12-07T14:17:11.431Z,14.00
2018-12-07T14:19:37.720Z,13.80
2018-12-07T14:22:04.114Z,13.90
2018-12-07T14:24:30.327Z,14.30
2018-12-07T14:26:59.472Z,14.50
2018-12-07T14:29:24.853Z,14.50
2018-12-07T14:31:51.099Z,14.40
2018-12-07T14:34:17.337Z,14.30
2018-12-07T14:36:43.823Z,14.20
2018-12-07T14:39:10.415Z,14.00
2018-12-07T14:41:36.664Z,13.50
2018-12-07T14:44:03.113Z,13.10
2018-12-07T14:46:29.344Z,12.90
2018-12-07T14:48:55.480Z,12.90
2018-12-07T14:51:21.761Z,12.70
2018-12-07T14:53:48.119Z,12.60
2018-12-07T14:56:14.243Z,12.70
2018-12-07T14:58:40.753Z,12.70
2018-12-07T15:01:06.997Z,12.70
2018-12-07T15:03:33.233Z,12.70
2018-12-07T15:05:59.539Z,12.70
2018-12-07T15:08:26.330Z,12.80
2018-12-07T15:10:52.641Z,12.80
2018-12-07T15:13:18.839Z,12.90
2018-12-07T15:15:45.101Z,12.80
2018-12-07T15:18:11.452Z,12.60
2018-12-07T15:20:37.665Z,12.50
2018-12-07T15:23:03.878Z,12.20
2018-12-07T15:25:30.136Z,12.00
2018-12-07T15:27:56.464Z,12.00
2018-12-07T15:30:22.771Z,11.80
2018-12-07T15:32:49.031Z,11.70
2018-12-07T15:35:15.346Z,11.80
2018-12-07T15:37:41.563Z,11.80
2018-12-07T15:40:07.810Z,11.70
2018-12-07T15:42:34.086Z,11.70
2018-12-07T15:45:00.403Z,11.70
2018-12-07T15:47:26.780Z,11.70
2018-12-07T15:49:53.171Z,11.70
2018-12-07T15:52:19.518Z,11.70
2018-12-07T15:54:45.876Z,11.50
2018-12-07T15:57:12.045Z,11.70
2018-12-07T15:59:38.197Z,11.70
2018-12-07T16:02:04.365Z,11.60
2018-12-07T16:04:30.573Z,11.50
2018-12-07T16:06:56.711Z,11.50
2018-12-07T16:09:22.993Z,11.50
2018-12-07T16:11:49.369Z,11.50
2018-12-07T16:14:15.685Z,11.40
2018-12-07T16:16:42.316Z,11.40
2018-12-07T16:19:08.695Z,11.30
2018-12-07T16:21:35.070Z,11.30
2018-12-07T16:24:01.378Z,11.20
2018-12-07T16:26:27.675Z,11.20
2018-12-07T16:28:53.856Z,11.20
2018-12-07T16:31:20.190Z,11.10
2018-12-07T16:33:46.398Z,11.00
2018-12-07T16:36:12.629Z,10.90
2018-12-07T16:38:38.817Z,10.80
2018-12-07T16:41:05.287Z,10.80
2018-12-07T16:43:31.629Z,10.60
2018-12-07T16:45:58.093Z,10.50
2018-12-07T16:48:24.375Z,10.50
2018-12-07T16:50:50.663Z,10.30
2018-12-07T16:53:16.984Z,10.30
2018-12-07T16:55:43.632Z,10.20
2018-12-07T16:58:09.941Z,10.00
2018-12-07T17:00:36.375Z,10.00
2018-12-07T17:03:02.950Z,9.90
2018-12-07T17:05:29.424Z,9.80
2018-12-07T17:07:55.942Z,9.60
2018-12-07T17:10:22.332Z,9.50
2018-12-07T17:12:48.580Z,9.30
2018-12-07T17:15:14.969Z,9.30
2018-12-07T17:17:41.278Z,9.30
2018-12-07T17:20:07.606Z,9.20
2018-12-07T17:22:33.940Z,9.20
2018-12-07T17:25:00.242Z,9.10
2018-12-07T17:27:26.854Z,9.10
2018-12-07T17:29:53.235Z,9.00
2018-12-07T17:32:19.459Z,9.00
2018-12-07T17:34:45.782Z,8.90
2018-12-07T17:37:12.107Z,8.90
2018-12-07T17:39:38.436Z,8.80
2018-12-07T17:42:04.776Z,8.80
2018-12-07T17:44:31.141Z,8.90
2018-12-07T17:46:57.276Z,8.90
2018-12-07T17:49:23.499Z,8.90
2018-12-07T17:51:49.720Z,8.90
2018-12-07T17:54:16.290Z,9.00
2018-12-07T17:56:42.900Z,9.00
2018-12-07T17:59:09.184Z,9.00
2018-12-07T18:01:35.297Z,9.00
2018-12-07T18:04:01.375Z,9.20
2018-12-07T18:06:27.528Z,9.30
2018-12-07T18:08:53.693Z,9.30
2018-12-07T18:11:20.156Z,9.20
2018-12-07T18:13:48.083Z,9.30
2018-12-07T18:16:14.478Z,9.30
2018-12-07T18:18:40.811Z,9.40
2018-12-07T18:21:07.082Z,9.40
2018-12-07T18:23:33.197Z,9.40
2018-12-07T18:25:59.516Z,9.40
2018-12-07T18:28:25.854Z,9.40
2018-12-07T18:30:52.324Z,9.30
2018-12-07T18:33:18.823Z,9.20
2018-12-07T18:35:45.469Z,9.30
2018-12-07T18:38:11.788Z,9.30
2018-12-07T18:40:38.005Z,9.30
2018-12-07T18:43:04.548Z,9.20
2018-12-07T18:45:30.950Z,9.20
2018-12-07T18:47:57.270Z,9.20
2018-12-07T18:50:23.747Z,9.20
2018-12-07T18:52:50.082Z,9.10
2018-12-07T18:55:16.285Z,9.20
2018-12-07T18:57:42.676Z,9.20
2018-12-07T19:00:09.361Z,9.30
2018-12-07T19:02:35.793Z,9.30
2018-12-07T19:05:02.474Z,9.40
2018-12-07T19:07:28.775Z,9.30
2018-12-07T19:09:56.030Z,9.20
2018-12-07T19:12:22.340Z,9.20
2018-12-07T19:14:48.540Z,9.20
2018-12-07T19:17:14.751Z,9.20
2018-12-07T19:19:41.015Z,9.30
2018-12-07T19:22:07.256Z,9.40
2018-12-07T19:24:33.617Z,9.50
2018-12-07T19:27:00.302Z,9.40
2018-12-07T19:29:26.599Z,9.40
2018-12-07T19:31:53.331Z,9.30
2018-12-07T19:34:20.063Z,9.30
2018-12-07T19:36:46.466Z,9.20
2018-12-07T19:39:12.803Z,9.20
2018-12-07T19:41:39.084Z,9.30
2018-12-07T19:44:05.407Z,9.20
2018-12-07T19:46:32.719Z,9.30
2018-12-07T19:48:59.207Z,9.30
2018-12-07T19:51:25.818Z,9.20
2018-12-07T19:53:52.399Z,9.30
2018-12-07T19:56:18.702Z,9.30
2018-12-07T19:58:45.359Z,9.20
2018-12-07T20:01:12.118Z,9.30
2018-12-07T20:03:38.507Z,9.20
2018-12-07T20:06:06.713Z,9.30
2018-12-07T20:08:33.006Z,9.30
2018-12-07T20:10:59.109Z,9.30
2018-12-07T20:13:25.639Z,9.30
2018-12-07T20:15:51.838Z,9.40
2018-12-07T20:18:17.989Z,9.80
2018-12-07T20:20:44.225Z,9.40
2018-12-07T20:23:10.621Z,9.40
2018-12-07T20:25:37.025Z,9.40
2018-12-07T20:28:03.777Z,9.40
2018-12-07T20:30:29.984Z,9.40
2018-12-07T20:32:56.412Z,9.50
2018-12-07T20:35:22.712Z,9.40
2018-12-07T20:37:49.041Z,9.50
2018-12-07T20:40:15.483Z,9.50
2018-12-07T20:42:41.652Z,9.50
2018-12-07T20:45:08.312Z,9.40
2018-12-07T20:47:34.635Z,9.60
2018-12-07T20:50:01.041Z,9.60
2018-12-07T20:52:27.490Z,9.60
2018-12-07T20:54:53.746Z,9.70
2018-12-07T20:57:19.967Z,9.90
2018-12-07T20:59:46.229Z,9.90
2018-12-07T21:02:12.636Z,10.00
2018-12-07T21:04:39.175Z,10.00
2018-12-07T21:07:32.734Z,9.90
2018-12-07T21:16:55.944Z,9.80
2018-12-07T21:19:22.173Z,9.80
2018-12-07T21:21:48.257Z,9.90
2018-12-07T21:24:14.466Z,9.90
2018-12-07T21:26:40.584Z,10.00
2018-12-07T21:29:07.058Z,10.10
2018-12-07T21:31:33.518Z,10.10
2018-12-07T21:34:03.706Z,10.00
2018-12-07T21:36:35.208Z,10.10
2018-12-07T21:39:01.522Z,10.10
2018-12-07T21:41:27.747Z,10.20
2018-12-07T21:43:54.266Z,10.20
2018-12-07T21:46:20.667Z,10.20
2018-12-07T21:48:46.979Z,10.10
2018-12-07T21:51:17.222Z,10.10
2018-12-07T21:53:43.429Z,10.20
2018-12-07T21:56:09.905Z,10.20
2018-12-07T21:58:36.414Z,10.20
2018-12-07T22:01:02.775Z,10.20
2018-12-07T22:03:28.985Z,10.00
2018-12-07T22:05:55.687Z,10.20
2018-12-07T22:08:22.144Z,10.30
2018-12-07T22:10:48.450Z,10.20
2018-12-07T22:13:14.944Z,10.20
2018-12-07T22:15:41.358Z,10.20
2018-12-07T22:18:07.586Z,10.20
2018-12-07T22:20:33.759Z,10.20
2018-12-07T22:23:00.041Z,10.10
2018-12-07T22:25:26.175Z,10.10
2018-12-07T22:27:52.592Z,10.10
2018-12-07T22:30:19.387Z,10.20
2018-12-07T22:32:45.852Z,10.10
2018-12-07T22:35:12.139Z,9.90
2018-12-07T22:37:38.484Z,9.80
2018-12-07T22:40:05.759Z,9.60
2018-12-07T22:42:32.241Z,9.40
2018-12-07T22:44:58.583Z,9.20
2018-12-07T22:47:24.802Z,8.90
2018-12-07T22:49:50.942Z,8.50
2018-12-07T22:52:17.074Z,8.20
2018-12-07T22:54:43.138Z,8.00
2018-12-07T22:57:09.228Z,7.90
2018-12-07T22:59:35.331Z,7.90
2018-12-07T23:02:01.525Z,7.90
2018-12-07T23:04:27.783Z,7.90
2018-12-07T23:06:53.896Z,7.90
2018-12-07T23:09:19.986Z,7.90
2018-12-07T23:11:46.164Z,7.80
2018-12-07T23:14:12.270Z,7.80
2018-12-07T23:16:38.363Z,7.70
2018-12-07T23:19:04.586Z,7.70
2018-12-07T23:21:30.663Z,7.60
2018-12-07T23:23:56.766Z,7.60
2018-12-07T23:26:22.971Z,7.60
2018-12-07T23:28:49.178Z,7.50
2018-12-07T23:31:15.257Z,7.40
2018-12-07T23:33:41.351Z,7.30
2018-12-07T23:36:07.541Z,7.20
2018-12-07T23:38:33.642Z,7.10
2018-12-07T23:40:59.731Z,7.10
2018-12-07T23:43:25.931Z,7.00
2018-12-07T23:45:52.017Z,6.90
2018-12-07T23:48:18.150Z,6.90
2018-12-07T23:50:44.226Z,6.80
2018-12-07T23:53:10.331Z,6.60
2018-12-07T23:55:36.538Z,6.50
2018-12-07T23:58:02.836Z,6.30
